Main page
METAR-TAF:

METAR-TAF

Airports :

Girona–Costa Brava Airport

Girona, Spain

latitude: 41-54N, longitude: 002-46E, elevation: 143 m

Current weather observation

The report was made 22 minutes ago, at 16:30 UTC
Wind 7 kt from the South/Southwest
Temperature 16°C
Humidity 82%
Pressure 1007 hPa
Visibility 10 km or more
Few clouds at a height of 4000 ft

METAR: LEGE 231630Z 21007KT 9999 FEW040 16/13 Q1007

Time: 18:52 (16:52 UTC)

Forecast

The report was made 2 hours and 22 minutes ago, at 14:30 UTC
Forecast valid from 23 at 14 UTC to 24 at 12 UTC
Wind 12 kt from the South/Southwest
Visibility 10 km or more
Few clouds at a height of 2000 ft
Scattered clouds at a height of 4000 ft
Temporary
from 23 at 23 UTC to 24 at 02 UTC
Visibility: 4000 m
Broken clouds at a height of 500 ft
mist
Becoming
from 24 at 02 UTC to 24 at 04 UTC
Wind 5 kt from the Northwest

TAF: LEGE 231430Z 2314/2412 20012KT 9999 FEW020 SCT040 TX22/2412Z TN10/2406Z TEMPO 2323/2402 4000 BR BKN005 BECMG 2402/2404 32005KT

Weather observations and forecasts of more than 4000 airports (METAR and TAF reports).

The available stations are represented by yellow and red dots on the map.

Hover mouse over dot to see the name of the station.

Then click to see weather observations and forecasts.

To change the map : click on the green buttons with a black cross to zoom in, on the green button with a dash to zoom out, or on the green arrows for adjacent maps.


METAR-TAF: